Terminal Aerodrome Forecast
Issued by NWS

Home | Current Version | Previous Version | Graphics & Text | Print | Product List | Glossary On
Versions: 1 2 3 4 5 6 7 8 9 10 11 12 13 14 15
000
FTUS43 KBIS 181400 AAA
TAFDIK
TAF AMD
KDIK 181414Z 1814/1912 17017KT P6SM SKC
     FM182100 18012KT P6SM SCT120 BKN150
     FM190300 22005KT P6SM SCT120
     FM190700 28008KT P6SM SCT090=

USA.gov is the U.S. government's official web portal to all federal, state and local government web resources and services.